sensor_id;sensor_type;location;lat;lon;timestamp;P1;durP1;ratioP1;P2;durP2;ratioP2
10550;SDS011;5324;50.684;3.862;2024-03-06T00:00:50;6.07;;;5.27;;
10550;SDS011;5324;50.684;3.862;2024-03-06T00:03:16;5.60;;;4.63;;
10550;SDS011;5324;50.684;3.862;2024-03-06T00:05:42;5.50;;;5.00;;
10550;SDS011;5324;50.684;3.862;2024-03-06T00:08:08;4.93;;;4.30;;
10550;SDS011;5324;50.684;3.862;2024-03-06T00:10:34;4.73;;;4.33;;
10550;SDS011;5324;50.684;3.862;2024-03-06T00:13:01;4.57;;;4.17;;
10550;SDS011;5324;50.684;3.862;2024-03-06T00:15:27;5.27;;;4.30;;
10550;SDS011;5324;50.684;3.862;2024-03-06T00:17:53;4.77;;;4.27;;
10550;SDS011;5324;50.684;3.862;2024-03-06T00:20:19;5.23;;;4.73;;
10550;SDS011;5324;50.684;3.862;2024-03-06T00:22:45;6.07;;;4.30;;
10550;SDS011;5324;50.684;3.862;2024-03-06T00:25:11;5.60;;;4.80;;
10550;SDS011;5324;50.684;3.862;2024-03-06T00:27:37;5.27;;;4.77;;
10550;SDS011;5324;50.684;3.862;2024-03-06T00:30:03;7.73;;;5.40;;
10550;SDS011;5324;50.684;3.862;2024-03-06T00:32:29;6.23;;;4.40;;
10550;SDS011;5324;50.684;3.862;2024-03-06T00:34:55;5.40;;;4.70;;
10550;SDS011;5324;50.684;3.862;2024-03-06T00:37:21;6.23;;;5.00;;
10550;SDS011;5324;50.684;3.862;2024-03-06T00:39:47;6.23;;;5.57;;
10550;SDS011;5324;50.684;3.862;2024-03-06T00:42:13;6.27;;;5.53;;
10550;SDS011;5324;50.684;3.862;2024-03-06T00:44:39;9.20;;;5.37;;
10550;SDS011;5324;50.684;3.862;2024-03-06T00:47:05;5.97;;;5.30;;
10550;SDS011;5324;50.684;3.862;2024-03-06T00:49:31;8.40;;;5.97;;
10550;SDS011;5324;50.684;3.862;2024-03-06T00:51:57;6.53;;;5.20;;
10550;SDS011;5324;50.684;3.862;2024-03-06T00:54:23;6.77;;;4.80;;
10550;SDS011;5324;50.684;3.862;2024-03-06T00:56:49;5.43;;;4.93;;
10550;SDS011;5324;50.684;3.862;2024-03-06T00:59:15;5.23;;;4.73;;
10550;SDS011;5324;50.684;3.862;2024-03-06T01:01:41;6.43;;;4.87;;
10550;SDS011;5324;50.684;3.862;2024-03-06T01:04:07;5.60;;;5.10;;
10550;SDS011;5324;50.684;3.862;2024-03-06T01:06:33;5.40;;;4.60;;
10550;SDS011;5324;50.684;3.862;2024-03-06T01:08:59;5.77;;;5.17;;
10550;SDS011;5324;50.684;3.862;2024-03-06T01:11:25;5.33;;;4.60;;
10550;SDS011;5324;50.684;3.862;2024-03-06T01:13:51;5.60;;;5.00;;
10550;SDS011;5324;50.684;3.862;2024-03-06T01:16:17;5.80;;;4.60;;
10550;SDS011;5324;50.684;3.862;2024-03-06T01:18:44;5.13;;;4.60;;
10550;SDS011;5324;50.684;3.862;2024-03-06T01:21:10;5.17;;;4.67;;
10550;SDS011;5324;50.684;3.862;2024-03-06T01:23:36;5.60;;;5.10;;
10550;SDS011;5324;50.684;3.862;2024-03-06T01:26:02;5.17;;;4.60;;
10550;SDS011;5324;50.684;3.862;2024-03-06T01:28:28;5.87;;;4.43;;
10550;SDS011;5324;50.684;3.862;2024-03-06T01:30:54;5.80;;;4.47;;
10550;SDS011;5324;50.684;3.862;2024-03-06T01:33:20;5.43;;;4.53;;
10550;SDS011;5324;50.684;3.862;2024-03-06T01:35:46;5.33;;;4.53;;
10550;SDS011;5324;50.684;3.862;2024-03-06T01:38:12;6.07;;;5.43;;
10550;SDS011;5324;50.684;3.862;2024-03-06T01:40:44;5.90;;;5.27;;
10550;SDS011;5324;50.684;3.862;2024-03-06T01:43:20;6.10;;;4.83;;
10550;SDS011;5324;50.684;3.862;2024-03-06T01:45:47;7.27;;;6.33;;
10550;SDS011;5324;50.684;3.862;2024-03-06T01:48:13;7.33;;;6.07;;
10550;SDS011;5324;50.684;3.862;2024-03-06T01:50:40;7.30;;;5.77;;
10550;SDS011;5324;50.684;3.862;2024-03-06T01:53:08;7.20;;;5.53;;
10550;SDS011;5324;50.684;3.862;2024-03-06T01:55:34;7.27;;;5.80;;
10550;SDS011;5324;50.684;3.862;2024-03-06T01:58:01;7.83;;;6.23;;
10550;SDS011;5324;50.684;3.862;2024-03-06T02:00:27;7.13;;;6.23;;
10550;SDS011;5324;50.684;3.862;2024-03-06T02:02:53;6.73;;;6.03;;
10550;SDS011;5324;50.684;3.862;2024-03-06T02:05:19;7.20;;;6.00;;
10550;SDS011;5324;50.684;3.862;2024-03-06T02:07:45;7.77;;;6.03;;
10550;SDS011;5324;50.684;3.862;2024-03-06T02:10:13;7.57;;;5.70;;
10550;SDS011;5324;50.684;3.862;2024-03-06T02:12:39;6.50;;;5.60;;
10550;SDS011;5324;50.684;3.862;2024-03-06T02:15:06;6.07;;;5.17;;
10550;SDS011;5324;50.684;3.862;2024-03-06T02:17:33;6.70;;;6.00;;
10550;SDS011;5324;50.684;3.862;2024-03-06T02:19:59;7.97;;;6.07;;
10550;SDS011;5324;50.684;3.862;2024-03-06T02:22:25;6.37;;;5.73;;
10550;SDS011;5324;50.684;3.862;2024-03-06T02:24:51;6.97;;;5.33;;
10550;SDS011;5324;50.684;3.862;2024-03-06T02:27:17;7.13;;;5.87;;
10550;SDS011;5324;50.684;3.862;2024-03-06T02:29:43;7.03;;;5.47;;
10550;SDS011;5324;50.684;3.862;2024-03-06T02:32:11;6.00;;;5.40;;
10550;SDS011;5324;50.684;3.862;2024-03-06T02:34:38;5.50;;;5.00;;
10550;SDS011;5324;50.684;3.862;2024-03-06T02:37:05;5.53;;;4.90;;
10550;SDS011;5324;50.684;3.862;2024-03-06T02:39:31;6.67;;;5.17;;
10550;SDS011;5324;50.684;3.862;2024-03-06T02:41:57;7.63;;;5.50;;
10550;SDS011;5324;50.684;3.862;2024-03-06T02:44:23;9.60;;;5.97;;
10550;SDS011;5324;50.684;3.862;2024-03-06T02:46:50;6.13;;;5.53;;
10550;SDS011;5324;50.684;3.862;2024-03-06T02:49:16;6.17;;;5.53;;
10550;SDS011;5324;50.684;3.862;2024-03-06T02:51:43;7.33;;;6.30;;
10550;SDS011;5324;50.684;3.862;2024-03-06T02:54:09;5.43;;;4.93;;
10550;SDS011;5324;50.684;3.862;2024-03-06T02:56:35;6.70;;;5.83;;
10550;SDS011;5324;50.684;3.862;2024-03-06T02:59:01;6.43;;;5.57;;
10550;SDS011;5324;50.684;3.862;2024-03-06T03:01:28;5.57;;;4.97;;
10550;SDS011;5324;50.684;3.862;2024-03-06T03:03:55;6.40;;;5.43;;
10550;SDS011;5324;50.684;3.862;2024-03-06T03:06:21;6.10;;;5.53;;
10550;SDS011;5324;50.684;3.862;2024-03-06T03:08:49;6.73;;;5.67;;
10550;SDS011;5324;50.684;3.862;2024-03-06T03:11:15;7.50;;;6.70;;
10550;SDS011;5324;50.684;3.862;2024-03-06T03:13:42;10.27;;;6.60;;
10550;SDS011;5324;50.684;3.862;2024-03-06T03:16:18;7.50;;;6.73;;
10550;SDS011;5324;50.684;3.862;2024-03-06T03:18:45;9.33;;;5.60;;
10550;SDS011;5324;50.684;3.862;2024-03-06T03:21:11;6.47;;;5.77;;
10550;SDS011;5324;50.684;3.862;2024-03-06T03:23:40;6.20;;;5.20;;
10550;SDS011;5324;50.684;3.862;2024-03-06T03:26:07;6.37;;;5.57;;
10550;SDS011;5324;50.684;3.862;2024-03-06T03:28:37;6.47;;;5.40;;
10550;SDS011;5324;50.684;3.862;2024-03-06T03:31:04;6.87;;;5.80;;
10550;SDS011;5324;50.684;3.862;2024-03-06T03:33:30;6.57;;;5.40;;
10550;SDS011;5324;50.684;3.862;2024-03-06T03:35:56;6.53;;;5.90;;
10550;SDS011;5324;50.684;3.862;2024-03-06T03:38:22;6.77;;;5.63;;
10550;SDS011;5324;50.684;3.862;2024-03-06T03:40:48;7.07;;;5.50;;
10550;SDS011;5324;50.684;3.862;2024-03-06T03:43:14;4.73;;;4.30;;
10550;SDS011;5324;50.684;3.862;2024-03-06T03:45:41;5.30;;;4.80;;
10550;SDS011;5324;50.684;3.862;2024-03-06T03:48:07;5.50;;;5.00;;
10550;SDS011;5324;50.684;3.862;2024-03-06T03:50:33;6.10;;;5.50;;
10550;SDS011;5324;50.684;3.862;2024-03-06T03:52:59;5.63;;;5.03;;
10550;SDS011;5324;50.684;3.862;2024-03-06T03:55:26;7.83;;;5.40;;
10550;SDS011;5324;50.684;3.862;2024-03-06T03:57:52;6.47;;;5.83;;
10550;SDS011;5324;50.684;3.862;2024-03-06T04:00:18;6.10;;;5.50;;
10550;SDS011;5324;50.684;3.862;2024-03-06T04:02:44;6.87;;;5.40;;
10550;SDS011;5324;50.684;3.862;2024-03-06T04:05:10;5.87;;;5.27;;
10550;SDS011;5324;50.684;3.862;2024-03-06T04:07:37;6.03;;;4.90;;
10550;SDS011;5324;50.684;3.862;2024-03-06T04:10:03;5.97;;;4.93;;
10550;SDS011;5324;50.684;3.862;2024-03-06T04:12:29;5.30;;;4.80;;
10550;SDS011;5324;50.684;3.862;2024-03-06T04:14:55;5.50;;;4.90;;
10550;SDS011;5324;50.684;3.862;2024-03-06T04:17:22;5.47;;;4.97;;
10550;SDS011;5324;50.684;3.862;2024-03-06T04:19:48;6.50;;;4.97;;
10550;SDS011;5324;50.684;3.862;2024-03-06T04:22:14;5.33;;;4.40;;
10550;SDS011;5324;50.684;3.862;2024-03-06T04:24:43;8.13;;;5.17;;
10550;SDS011;5324;50.684;3.862;2024-03-06T04:27:09;6.17;;;4.60;;
10550;SDS011;5324;50.684;3.862;2024-03-06T04:29:35;8.77;;;4.77;;
10550;SDS011;5324;50.684;3.862;2024-03-06T04:32:01;8.40;;;5.37;;
10550;SDS011;5324;50.684;3.862;2024-03-06T04:34:27;5.00;;;4.53;;
10550;SDS011;5324;50.684;3.862;2024-03-06T04:36:53;5.33;;;4.70;;
10550;SDS011;5324;50.684;3.862;2024-03-06T04:39:20;5.27;;;4.67;;
10550;SDS011;5324;50.684;3.862;2024-03-06T04:41:46;5.30;;;4.80;;
10550;SDS011;5324;50.684;3.862;2024-03-06T04:44:12;5.13;;;4.63;;
10550;SDS011;5324;50.684;3.862;2024-03-06T04:46:39;5.13;;;4.70;;
10550;SDS011;5324;50.684;3.862;2024-03-06T04:49:05;5.20;;;4.63;;
10550;SDS011;5324;50.684;3.862;2024-03-06T04:51:31;6.10;;;5.10;;
10550;SDS011;5324;50.684;3.862;2024-03-06T04:53:57;6.17;;;5.57;;
10550;SDS011;5324;50.684;3.862;2024-03-06T04:56:23;5.43;;;4.93;;
10550;SDS011;5324;50.684;3.862;2024-03-06T04:58:49;5.53;;;4.83;;
10550;SDS011;5324;50.684;3.862;2024-03-06T05:01:17;5.83;;;5.23;;
10550;SDS011;5324;50.684;3.862;2024-03-06T05:03:43;5.83;;;5.00;;
10550;SDS011;5324;50.684;3.862;2024-03-06T05:06:09;8.57;;;4.80;;
10550;SDS011;5324;50.684;3.862;2024-03-06T05:08:36;6.87;;;5.23;;
10550;SDS011;5324;50.684;3.862;2024-03-06T05:11:03;8.97;;;5.43;;
10550;SDS011;5324;50.684;3.862;2024-03-06T05:13:29;7.60;;;5.73;;
10550;SDS011;5324;50.684;3.862;2024-03-06T05:15:55;6.20;;;5.60;;
10550;SDS011;5324;50.684;3.862;2024-03-06T05:18:21;8.70;;;5.37;;
10550;SDS011;5324;50.684;3.862;2024-03-06T05:20:47;5.70;;;5.20;;
10550;SDS011;5324;50.684;3.862;2024-03-06T05:23:13;6.57;;;5.73;;
10550;SDS011;5324;50.684;3.862;2024-03-06T05:25:39;7.17;;;6.43;;
10550;SDS011;5324;50.684;3.862;2024-03-06T05:28:06;8.13;;;6.30;;
10550;SDS011;5324;50.684;3.862;2024-03-06T05:30:32;9.20;;;6.30;;
10550;SDS011;5324;50.684;3.862;2024-03-06T05:32:58;7.53;;;6.63;;
10550;SDS011;5324;50.684;3.862;2024-03-06T05:35:24;8.83;;;7.13;;
10550;SDS011;5324;50.684;3.862;2024-03-06T05:37:50;8.13;;;7.07;;
10550;SDS011;5324;50.684;3.862;2024-03-06T05:40:16;9.77;;;6.83;;
10550;SDS011;5324;50.684;3.862;2024-03-06T05:42:42;9.30;;;6.93;;
10550;SDS011;5324;50.684;3.862;2024-03-06T05:45:08;8.20;;;6.57;;
10550;SDS011;5324;50.684;3.862;2024-03-06T05:47:37;7.70;;;6.63;;
10550;SDS011;5324;50.684;3.862;2024-03-06T05:50:03;8.60;;;5.70;;
10550;SDS011;5324;50.684;3.862;2024-03-06T05:52:30;7.70;;;5.63;;
10550;SDS011;5324;50.684;3.862;2024-03-06T05:54:56;10.70;;;5.87;;
10550;SDS011;5324;50.684;3.862;2024-03-06T05:57:22;7.17;;;6.03;;
10550;SDS011;5324;50.684;3.862;2024-03-06T05:59:48;6.90;;;6.20;;
10550;SDS011;5324;50.684;3.862;2024-03-06T06:02:14;6.77;;;5.93;;
10550;SDS011;5324;50.684;3.862;2024-03-06T06:04:44;8.57;;;5.53;;
10550;SDS011;5324;50.684;3.862;2024-03-06T06:07:10;7.13;;;6.30;;
10550;SDS011;5324;50.684;3.862;2024-03-06T06:09:36;7.23;;;5.83;;
10550;SDS011;5324;50.684;3.862;2024-03-06T06:12:02;6.73;;;5.73;;
10550;SDS011;5324;50.684;3.862;2024-03-06T06:14:28;6.20;;;5.03;;
10550;SDS011;5324;50.684;3.862;2024-03-06T06:16:55;7.03;;;6.33;;
10550;SDS011;5324;50.684;3.862;2024-03-06T06:19:21;6.83;;;5.93;;
10550;SDS011;5324;50.684;3.862;2024-03-06T06:21:47;7.17;;;6.07;;
10550;SDS011;5324;50.684;3.862;2024-03-06T06:24:13;7.83;;;6.13;;
10550;SDS011;5324;50.684;3.862;2024-03-06T06:26:39;7.17;;;5.87;;
10550;SDS011;5324;50.684;3.862;2024-03-06T06:29:08;6.37;;;5.77;;
10550;SDS011;5324;50.684;3.862;2024-03-06T06:31:34;6.53;;;5.20;;
10550;SDS011;5324;50.684;3.862;2024-03-06T06:34:00;5.83;;;5.33;;
10550;SDS011;5324;50.684;3.862;2024-03-06T06:36:26;5.77;;;5.07;;
10550;SDS011;5324;50.684;3.862;2024-03-06T06:38:52;8.77;;;5.43;;
10550;SDS011;5324;50.684;3.862;2024-03-06T06:41:19;6.47;;;4.93;;
10550;SDS011;5324;50.684;3.862;2024-03-06T06:43:45;6.93;;;5.67;;
10550;SDS011;5324;50.684;3.862;2024-03-06T06:46:11;7.10;;;5.27;;
10550;SDS011;5324;50.684;3.862;2024-03-06T06:48:37;6.27;;;5.67;;
10550;SDS011;5324;50.684;3.862;2024-03-06T06:51:03;5.73;;;5.07;;
10550;SDS011;5324;50.684;3.862;2024-03-06T06:53:29;5.90;;;5.33;;
10550;SDS011;5324;50.684;3.862;2024-03-06T06:55:55;7.93;;;6.13;;
10550;SDS011;5324;50.684;3.862;2024-03-06T06:58:22;9.17;;;6.33;;
10550;SDS011;5324;50.684;3.862;2024-03-06T07:00:48;5.93;;;5.33;;
10550;SDS011;5324;50.684;3.862;2024-03-06T07:03:14;8.57;;;6.40;;
10550;SDS011;5324;50.684;3.862;2024-03-06T07:05:40;7.90;;;6.03;;
10550;SDS011;5324;50.684;3.862;2024-03-06T07:08:10;9.90;;;5.90;;
10550;SDS011;5324;50.684;3.862;2024-03-06T07:10:36;8.53;;;6.23;;
10550;SDS011;5324;50.684;3.862;2024-03-06T07:13:02;8.50;;;6.17;;
10550;SDS011;5324;50.684;3.862;2024-03-06T07:15:29;7.10;;;6.23;;
10550;SDS011;5324;50.684;3.862;2024-03-06T07:17:56;8.83;;;5.93;;
10550;SDS011;5324;50.684;3.862;2024-03-06T07:20:22;7.87;;;6.63;;
10550;SDS011;5324;50.684;3.862;2024-03-06T07:22:48;9.43;;;6.50;;
10550;SDS011;5324;50.684;3.862;2024-03-06T07:25:15;7.57;;;6.80;;
10550;SDS011;5324;50.684;3.862;2024-03-06T07:27:41;8.30;;;7.23;;
10550;SDS011;5324;50.684;3.862;2024-03-06T07:30:08;8.47;;;7.13;;
10550;SDS011;5324;50.684;3.862;2024-03-06T07:32:34;8.70;;;6.13;;
10550;SDS011;5324;50.684;3.862;2024-03-06T07:35:00;6.40;;;5.67;;
10550;SDS011;5324;50.684;3.862;2024-03-06T07:37:26;8.50;;;6.23;;
10550;SDS011;5324;50.684;3.862;2024-03-06T07:39:52;6.60;;;5.60;;
10550;SDS011;5324;50.684;3.862;2024-03-06T07:42:18;6.17;;;5.47;;
10550;SDS011;5324;50.684;3.862;2024-03-06T07:44:44;6.00;;;5.40;;
10550;SDS011;5324;50.684;3.862;2024-03-06T07:47:10;8.60;;;6.57;;
10550;SDS011;5324;50.684;3.862;2024-03-06T07:49:37;7.67;;;6.07;;
10550;SDS011;5324;50.684;3.862;2024-03-06T07:52:04;8.23;;;6.83;;
10550;SDS011;5324;50.684;3.862;2024-03-06T07:54:30;6.70;;;6.07;;
10550;SDS011;5324;50.684;3.862;2024-03-06T07:56:58;6.83;;;6.13;;
10550;SDS011;5324;50.684;3.862;2024-03-06T07:59:23;7.93;;;6.73;;
10550;SDS011;5324;50.684;3.862;2024-03-06T08:01:49;8.83;;;7.00;;
10550;SDS011;5324;50.684;3.862;2024-03-06T08:04:16;8.60;;;6.40;;
10550;SDS011;5324;50.684;3.862;2024-03-06T08:06:42;8.33;;;6.40;;
10550;SDS011;5324;50.684;3.862;2024-03-06T08:09:08;6.87;;;5.70;;
10550;SDS011;5324;50.684;3.862;2024-03-06T08:11:35;7.20;;;6.20;;
10550;SDS011;5324;50.684;3.862;2024-03-06T08:14:01;6.90;;;5.87;;
10550;SDS011;5324;50.684;3.862;2024-03-06T08:16:27;6.83;;;5.87;;
10550;SDS011;5324;50.684;3.862;2024-03-06T08:18:55;7.07;;;6.10;;
10550;SDS011;5324;50.684;3.862;2024-03-06T08:21:24;8.70;;;6.63;;
10550;SDS011;5324;50.684;3.862;2024-03-06T08:23:51;7.80;;;6.50;;
10550;SDS011;5324;50.684;3.862;2024-03-06T08:26:18;7.13;;;5.90;;
10550;SDS011;5324;50.684;3.862;2024-03-06T08:28:44;7.27;;;6.50;;
10550;SDS011;5324;50.684;3.862;2024-03-06T08:31:10;8.13;;;7.20;;
10550;SDS011;5324;50.684;3.862;2024-03-06T08:33:36;7.67;;;6.03;;
10550;SDS011;5324;50.684;3.862;2024-03-06T08:36:02;8.17;;;6.30;;
10550;SDS011;5324;50.684;3.862;2024-03-06T08:38:28;8.17;;;6.50;;
10550;SDS011;5324;50.684;3.862;2024-03-06T08:40:54;7.70;;;6.37;;
10550;SDS011;5324;50.684;3.862;2024-03-06T08:43:20;9.27;;;6.87;;
10550;SDS011;5324;50.684;3.862;2024-03-06T08:45:47;11.27;;;6.73;;
10550;SDS011;5324;50.684;3.862;2024-03-06T08:48:13;9.40;;;7.00;;
10550;SDS011;5324;50.684;3.862;2024-03-06T08:50:39;9.83;;;6.87;;
10550;SDS011;5324;50.684;3.862;2024-03-06T08:53:05;10.13;;;7.93;;
10550;SDS011;5324;50.684;3.862;2024-03-06T08:55:31;7.80;;;6.60;;
10550;SDS011;5324;50.684;3.862;2024-03-06T08:57:57;9.60;;;7.00;;
10550;SDS011;5324;50.684;3.862;2024-03-06T09:00:26;8.67;;;7.00;;
10550;SDS011;5324;50.684;3.862;2024-03-06T09:02:52;7.30;;;6.30;;
10550;SDS011;5324;50.684;3.862;2024-03-06T09:05:18;9.83;;;7.10;;
10550;SDS011;5324;50.684;3.862;2024-03-06T09:07:45;8.93;;;6.63;;
10550;SDS011;5324;50.684;3.862;2024-03-06T09:10:11;9.17;;;7.10;;
10550;SDS011;5324;50.684;3.862;2024-03-06T09:12:38;9.30;;;6.83;;
10550;SDS011;5324;50.684;3.862;2024-03-06T09:15:04;7.57;;;6.47;;
10550;SDS011;5324;50.684;3.862;2024-03-06T09:17:32;8.57;;;6.70;;
10550;SDS011;5324;50.684;3.862;2024-03-06T09:19:58;8.27;;;6.87;;
10550;SDS011;5324;50.684;3.862;2024-03-06T09:22:24;10.70;;;7.33;;
10550;SDS011;5324;50.684;3.862;2024-03-06T09:24:50;8.23;;;6.17;;
10550;SDS011;5324;50.684;3.862;2024-03-06T09:27:16;8.43;;;7.27;;
10550;SDS011;5324;50.684;3.862;2024-03-06T09:29:43;10.70;;;8.10;;
10550;SDS011;5324;50.684;3.862;2024-03-06T09:32:09;9.80;;;7.93;;
10550;SDS011;5324;50.684;3.862;2024-03-06T09:34:38;9.47;;;7.50;;
10550;SDS011;5324;50.684;3.862;2024-03-06T09:37:04;10.20;;;8.67;;
10550;SDS011;5324;50.684;3.862;2024-03-06T09:39:30;10.53;;;7.87;;
10550;SDS011;5324;50.684;3.862;2024-03-06T09:41:56;11.00;;;8.50;;
10550;SDS011;5324;50.684;3.862;2024-03-06T09:44:22;9.17;;;8.07;;
10550;SDS011;5324;50.684;3.862;2024-03-06T09:46:48;13.03;;;9.00;;
10550;SDS011;5324;50.684;3.862;2024-03-06T09:49:16;11.17;;;8.90;;
10550;SDS011;5324;50.684;3.862;2024-03-06T09:51:45;9.23;;;8.30;;
10550;SDS011;5324;50.684;3.862;2024-03-06T09:54:12;12.13;;;8.43;;
10550;SDS011;5324;50.684;3.862;2024-03-06T09:56:40;10.40;;;8.53;;
10550;SDS011;5324;50.684;3.862;2024-03-06T09:59:06;13.20;;;8.17;;
10550;SDS011;5324;50.684;3.862;2024-03-06T10:01:32;10.53;;;8.60;;
10550;SDS011;5324;50.684;3.862;2024-03-06T10:03:58;9.43;;;8.20;;
10550;SDS011;5324;50.684;3.862;2024-03-06T10:06:24;10.93;;;8.63;;
10550;SDS011;5324;50.684;3.862;2024-03-06T10:08:51;12.50;;;8.43;;
10550;SDS011;5324;50.684;3.862;2024-03-06T10:11:17;10.33;;;8.50;;
10550;SDS011;5324;50.684;3.862;2024-03-06T10:13:44;12.57;;;8.93;;
10550;SDS011;5324;50.684;3.862;2024-03-06T10:16:10;9.93;;;8.67;;
10550;SDS011;5324;50.684;3.862;2024-03-06T10:18:36;9.70;;;8.37;;
10550;SDS011;5324;50.684;3.862;2024-03-06T10:21:06;10.63;;;8.47;;
10550;SDS011;5324;50.684;3.862;2024-03-06T10:23:32;14.30;;;9.43;;
10550;SDS011;5324;50.684;3.862;2024-03-06T10:25:59;9.53;;;7.77;;
10550;SDS011;5324;50.684;3.862;2024-03-06T10:28:25;9.37;;;8.37;;
10550;SDS011;5324;50.684;3.862;2024-03-06T10:31:02;10.67;;;7.67;;
10550;SDS011;5324;50.684;3.862;2024-03-06T10:33:28;9.90;;;8.07;;
10550;SDS011;5324;50.684;3.862;2024-03-06T10:35:54;9.23;;;7.63;;
10550;SDS011;5324;50.684;3.862;2024-03-06T10:38:20;10.30;;;8.17;;
10550;SDS011;5324;50.684;3.862;2024-03-06T10:40:47;8.57;;;7.23;;
10550;SDS011;5324;50.684;3.862;2024-03-06T10:43:15;9.07;;;7.30;;
10550;SDS011;5324;50.684;3.862;2024-03-06T10:48:07;8.80;;;7.60;;
10550;SDS011;5324;50.684;3.862;2024-03-06T10:50:37;9.57;;;7.17;;
10550;SDS011;5324;50.684;3.862;2024-03-06T10:53:04;7.63;;;6.83;;
10550;SDS011;5324;50.684;3.862;2024-03-06T10:55:33;9.23;;;7.60;;
10550;SDS011;5324;50.684;3.862;2024-03-06T10:58:00;9.67;;;7.07;;
10550;SDS011;5324;50.684;3.862;2024-03-06T11:00:28;8.17;;;6.50;;
10550;SDS011;5324;50.684;3.862;2024-03-06T11:02:54;6.90;;;6.20;;
10550;SDS011;5324;50.684;3.862;2024-03-06T11:05:20;6.63;;;5.83;;
10550;SDS011;5324;50.684;3.862;2024-03-06T11:07:48;8.27;;;6.80;;
10550;SDS011;5324;50.684;3.862;2024-03-06T11:10:29;9.20;;;6.40;;
10550;SDS011;5324;50.684;3.862;2024-03-06T11:12:55;7.57;;;6.30;;
10550;SDS011;5324;50.684;3.862;2024-03-06T11:15:21;8.73;;;6.87;;
10550;SDS011;5324;50.684;3.862;2024-03-06T11:17:47;9.27;;;6.30;;
10550;SDS011;5324;50.684;3.862;2024-03-06T11:20:17;8.07;;;6.90;;
10550;SDS011;5324;50.684;3.862;2024-03-06T11:28:27;8.40;;;6.93;;
10550;SDS011;5324;50.684;3.862;2024-03-06T11:33:19;7.27;;;6.57;;
10550;SDS011;5324;50.684;3.862;2024-03-06T11:38:30;7.57;;;5.37;;
10550;SDS011;5324;50.684;3.862;2024-03-06T11:40:57;6.20;;;5.10;;
10550;SDS011;5324;50.684;3.862;2024-03-06T11:43:24;5.93;;;5.20;;
10550;SDS011;5324;50.684;3.862;2024-03-06T11:45:51;5.63;;;4.70;;
10550;SDS011;5324;50.684;3.862;2024-03-06T11:48:17;6.33;;;5.60;;
10550;SDS011;5324;50.684;3.862;2024-03-06T11:50:46;5.67;;;5.10;;
10550;SDS011;5324;50.684;3.862;2024-03-06T11:53:13;5.97;;;4.70;;
10550;SDS011;5324;50.684;3.862;2024-03-06T11:55:39;6.43;;;5.37;;
10550;SDS011;5324;50.684;3.862;2024-03-06T11:58:05;8.03;;;5.60;;
10550;SDS011;5324;50.684;3.862;2024-03-06T12:00:33;5.70;;;4.70;;
10550;SDS011;5324;50.684;3.862;2024-03-06T12:02:59;7.43;;;5.30;;
10550;SDS011;5324;50.684;3.862;2024-03-06T12:05:25;5.70;;;4.67;;
10550;SDS011;5324;50.684;3.862;2024-03-06T12:07:52;5.60;;;4.70;;
10550;SDS011;5324;50.684;3.862;2024-03-06T12:10:19;5.80;;;5.13;;
10550;SDS011;5324;50.684;3.862;2024-03-06T12:12:45;6.40;;;5.80;;
10550;SDS011;5324;50.684;3.862;2024-03-06T12:15:12;7.27;;;5.20;;
10550;SDS011;5324;50.684;3.862;2024-03-06T12:17:43;5.87;;;4.80;;
10550;SDS011;5324;50.684;3.862;2024-03-06T12:20:11;6.57;;;5.60;;
10550;SDS011;5324;50.684;3.862;2024-03-06T12:22:50;7.00;;;5.30;;
10550;SDS011;5324;50.684;3.862;2024-03-06T12:25:20;6.37;;;5.23;;
10550;SDS011;5324;50.684;3.862;2024-03-06T12:27:46;6.07;;;5.17;;
10550;SDS011;5324;50.684;3.862;2024-03-06T12:30:12;5.70;;;4.70;;
10550;SDS011;5324;50.684;3.862;2024-03-06T12:32:39;5.93;;;4.57;;
10550;SDS011;5324;50.684;3.862;2024-03-06T12:35:05;6.47;;;5.80;;
10550;SDS011;5324;50.684;3.862;2024-03-06T12:37:32;5.67;;;5.17;;
10550;SDS011;5324;50.684;3.862;2024-03-06T12:39:58;6.33;;;5.30;;
10550;SDS011;5324;50.684;3.862;2024-03-06T12:42:24;6.37;;;5.77;;
10550;SDS011;5324;50.684;3.862;2024-03-06T12:44:50;6.40;;;5.10;;
10550;SDS011;5324;50.684;3.862;2024-03-06T12:47:17;7.03;;;5.47;;
10550;SDS011;5324;50.684;3.862;2024-03-06T12:49:43;6.63;;;5.33;;
10550;SDS011;5324;50.684;3.862;2024-03-06T12:52:09;6.10;;;5.00;;
10550;SDS011;5324;50.684;3.862;2024-03-06T12:54:35;7.23;;;5.43;;
10550;SDS011;5324;50.684;3.862;2024-03-06T12:57:01;7.87;;;4.43;;
10550;SDS011;5324;50.684;3.862;2024-03-06T12:59:27;4.93;;;4.27;;
10550;SDS011;5324;50.684;3.862;2024-03-06T13:01:53;6.43;;;4.47;;
10550;SDS011;5324;50.684;3.862;2024-03-06T13:04:19;7.80;;;4.87;;
10550;SDS011;5324;50.684;3.862;2024-03-06T13:06:47;5.70;;;4.53;;
10550;SDS011;5324;50.684;3.862;2024-03-06T13:09:13;4.73;;;3.87;;
10550;SDS011;5324;50.684;3.862;2024-03-06T13:11:39;4.90;;;4.37;;
10550;SDS011;5324;50.684;3.862;2024-03-06T13:14:06;5.90;;;4.00;;
10550;SDS011;5324;50.684;3.862;2024-03-06T13:16:36;5.67;;;4.33;;
10550;SDS011;5324;50.684;3.862;2024-03-06T13:19:02;5.43;;;4.57;;
10550;SDS011;5324;50.684;3.862;2024-03-06T13:21:28;6.93;;;4.93;;
10550;SDS011;5324;50.684;3.862;2024-03-06T13:23:54;6.63;;;4.93;;
10550;SDS011;5324;50.684;3.862;2024-03-06T13:26:20;6.70;;;5.13;;
10550;SDS011;5324;50.684;3.862;2024-03-06T13:28:46;5.43;;;4.57;;
10550;SDS011;5324;50.684;3.862;2024-03-06T13:31:13;6.50;;;5.10;;
10550;SDS011;5324;50.684;3.862;2024-03-06T13:33:39;5.83;;;4.87;;
10550;SDS011;5324;50.684;3.862;2024-03-06T13:36:05;7.03;;;5.30;;
10550;SDS011;5324;50.684;3.862;2024-03-06T13:38:33;6.97;;;4.73;;
10550;SDS011;5324;50.684;3.862;2024-03-06T13:40:59;10.17;;;6.30;;
10550;SDS011;5324;50.684;3.862;2024-03-06T13:43:27;9.27;;;5.67;;
10550;SDS011;5324;50.684;3.862;2024-03-06T13:45:53;6.60;;;5.63;;
10550;SDS011;5324;50.684;3.862;2024-03-06T13:48:19;8.30;;;5.60;;
10550;SDS011;5324;50.684;3.862;2024-03-06T13:50:47;9.63;;;6.17;;
10550;SDS011;5324;50.684;3.862;2024-03-06T13:53:13;8.27;;;6.37;;
10550;SDS011;5324;50.684;3.862;2024-03-06T13:55:39;7.73;;;6.03;;
10550;SDS011;5324;50.684;3.862;2024-03-06T13:58:06;7.93;;;5.60;;
10550;SDS011;5324;50.684;3.862;2024-03-06T14:00:32;8.83;;;5.93;;
10550;SDS011;5324;50.684;3.862;2024-03-06T14:03:00;8.40;;;5.63;;
10550;SDS011;5324;50.684;3.862;2024-03-06T14:05:26;9.53;;;6.87;;
10550;SDS011;5324;50.684;3.862;2024-03-06T14:07:52;9.17;;;6.27;;
10550;SDS011;5324;50.684;3.862;2024-03-06T14:10:19;7.83;;;5.17;;
10550;SDS011;5324;50.684;3.862;2024-03-06T14:12:46;8.90;;;5.90;;
10550;SDS011;5324;50.684;3.862;2024-03-06T14:15:13;7.20;;;5.40;;
10550;SDS011;5324;50.684;3.862;2024-03-06T14:17:41;12.27;;;6.50;;
10550;SDS011;5324;50.684;3.862;2024-03-06T14:20:07;12.43;;;6.80;;
10550;SDS011;5324;50.684;3.862;2024-03-06T14:22:33;9.07;;;5.77;;
10550;SDS011;5324;50.684;3.862;2024-03-06T14:25:00;8.77;;;6.13;;
10550;SDS011;5324;50.684;3.862;2024-03-06T14:27:26;8.37;;;5.87;;
10550;SDS011;5324;50.684;3.862;2024-03-06T14:29:52;10.18;;;5.72;;
10550;SDS011;5324;50.684;3.862;2024-03-06T14:32:19;6.82;;;5.20;;
10550;SDS011;5324;50.684;3.862;2024-03-06T14:34:45;8.80;;;5.20;;
10550;SDS011;5324;50.684;3.862;2024-03-06T14:37:12;6.57;;;5.03;;
10550;SDS011;5324;50.684;3.862;2024-03-06T14:39:38;7.43;;;4.90;;
10550;SDS011;5324;50.684;3.862;2024-03-06T14:42:05;7.87;;;5.20;;
10550;SDS011;5324;50.684;3.862;2024-03-06T14:44:31;7.90;;;4.70;;
10550;SDS011;5324;50.684;3.862;2024-03-06T14:46:57;10.20;;;5.30;;
10550;SDS011;5324;50.684;3.862;2024-03-06T14:49:23;7.17;;;4.83;;
10550;SDS011;5324;50.684;3.862;2024-03-06T14:51:50;7.77;;;5.30;;
10550;SDS011;5324;50.684;3.862;2024-03-06T14:54:16;7.30;;;5.17;;
10550;SDS011;5324;50.684;3.862;2024-03-06T14:56:42;8.80;;;4.90;;
10550;SDS011;5324;50.684;3.862;2024-03-06T14:59:08;8.67;;;4.37;;
10550;SDS011;5324;50.684;3.862;2024-03-06T15:01:34;8.57;;;5.03;;
10550;SDS011;5324;50.684;3.862;2024-03-06T15:04:02;8.90;;;5.23;;
10550;SDS011;5324;50.684;3.862;2024-03-06T15:06:28;6.23;;;4.40;;
10550;SDS011;5324;50.684;3.862;2024-03-06T15:08:54;8.50;;;4.30;;